createdAt,value
2023-03-30T00:01:58.992Z,99311.54
2023-03-30T00:04:27.419Z,99308.86
2023-03-30T00:06:55.792Z,99308.16
2023-03-30T00:09:24.376Z,99303.13
2023-03-30T00:11:52.622Z,99304.25
2023-03-30T00:14:22.810Z,99297.65
2023-03-30T00:16:51.125Z,99298.00
2023-03-30T00:19:19.323Z,99298.69
2023-03-30T00:21:48.097Z,99295.45
2023-03-30T00:24:16.464Z,99291.69
2023-03-30T00:26:44.648Z,99290.95
2023-03-30T00:29:12.794Z,99286.68
2023-03-30T00:31:41.171Z,99289.64
2023-03-30T00:34:10.002Z,99283.84
2023-03-30T00:36:38.296Z,99285.55
2023-03-30T00:39:08.447Z,99285.72
2023-03-30T00:41:37.029Z,99281.72
2023-03-30T00:44:46.733Z,99277.48
2023-03-30T00:47:16.945Z,99272.02
2023-03-30T00:49:45.569Z,99268.01
2023-03-30T00:52:19.342Z,99260.16
2023-03-30T00:54:47.928Z,99262.30
2023-03-30T00:57:16.231Z,99267.72
2023-03-30T00:59:45.253Z,99267.20
2023-03-30T01:02:14.403Z,99265.52
2023-03-30T01:04:44.600Z,99256.91
2023-03-30T01:07:13.591Z,99257.85
2023-03-30T01:09:42.874Z,99259.33
2023-03-30T01:12:11.262Z,99256.95
2023-03-30T01:14:40.161Z,99255.27
2023-03-30T01:17:17.289Z,99250.58
2023-03-30T01:19:54.802Z,99248.42
2023-03-30T01:22:52.793Z,99247.16
2023-03-30T01:25:36.877Z,99250.06
2023-03-30T01:28:11.250Z,99245.85
2023-03-30T01:30:54.383Z,99240.48
2023-03-30T01:33:56.759Z,99242.70
2023-03-30T01:36:45.746Z,99242.77
2023-03-30T01:39:27.313Z,99240.15
2023-03-30T01:42:09.377Z,99238.20
2023-03-30T01:44:40.945Z,99234.85
2023-03-30T01:47:09.134Z,99235.84
2023-03-30T01:49:44.414Z,99235.21
2023-03-30T01:52:25.532Z,99232.11
2023-03-30T01:55:03.183Z,99234.94
2023-03-30T01:57:51.994Z,99235.98
2023-03-30T02:00:23.903Z,99233.16
2023-03-30T02:02:55.791Z,99230.55
2023-03-30T02:05:27.599Z,99227.21
2023-03-30T02:08:12.401Z,99225.75
2023-03-30T02:10:43.898Z,99226.58
2023-03-30T02:13:15.413Z,99226.89
2023-03-30T02:15:48.297Z,99225.42
2023-03-30T02:18:16.631Z,99227.67
2023-03-30T02:20:44.986Z,99221.67
2023-03-30T02:23:13.563Z,99221.98
2023-03-30T02:25:42.233Z,99219.80
2023-03-30T02:28:10.901Z,99215.16
2023-03-30T02:30:44.353Z,99212.75
2023-03-30T02:33:28.262Z,99214.02
2023-03-30T02:36:11.953Z,99211.95
2023-03-30T02:42:16.744Z,99209.36
2023-03-30T02:45:03.432Z,99204.45
2023-03-30T02:47:44.516Z,99206.98
2023-03-30T02:50:19.130Z,99205.11
2023-03-30T02:52:59.249Z,99201.50
2023-03-30T02:55:46.123Z,99197.90
2023-03-30T02:58:32.014Z,99195.39
2023-03-30T03:01:44.581Z,99196.20
2023-03-30T03:04:18.859Z,99190.54
2023-03-30T03:07:05.667Z,99184.55
2023-03-30T03:09:33.973Z,99185.26
2023-03-30T03:12:03.006Z,99182.81
2023-03-30T03:14:36.655Z,99177.87
2023-03-30T03:17:05.984Z,99170.66
2023-03-30T03:19:38.664Z,99166.27
2023-03-30T03:22:06.996Z,99163.75
2023-03-30T03:24:39.263Z,99158.30
2023-03-30T03:27:11.784Z,99154.65
2023-03-30T03:29:53.750Z,99147.30
2023-03-30T03:32:22.094Z,99142.08
2023-03-30T03:34:50.572Z,99135.25
2023-03-30T03:37:19.560Z,99134.60
2023-03-30T03:39:47.834Z,99139.77
2023-03-30T03:42:16.143Z,99147.27
2023-03-30T03:45:00.581Z,99144.08
2023-03-30T03:47:29.060Z,99142.25
2023-03-30T03:49:57.283Z,99137.61
2023-03-30T03:52:25.870Z,99136.29
2023-03-30T03:54:54.054Z,99132.84
2023-03-30T03:57:23.994Z,99131.11
2023-03-30T03:59:53.900Z,99129.02
2023-03-30T04:02:24.054Z,99127.41
2023-03-30T04:04:54.643Z,99124.21
2023-03-30T04:07:25.596Z,99125.87
2023-03-30T04:09:53.834Z,99122.30
2023-03-30T04:12:38.977Z,99121.98
2023-03-30T04:15:21.755Z,99122.50
2023-03-30T04:18:08.876Z,99118.15
2023-03-30T04:21:07.624Z,99116.59
2023-03-30T04:24:01.467Z,99116.72
2023-03-30T04:26:49.154Z,99115.48
2023-03-30T04:29:41.693Z,99114.40
2023-03-30T04:32:39.717Z,99110.36
2023-03-30T04:35:32.917Z,99100.38
2023-03-30T04:38:24.272Z,99095.33
2023-03-30T04:41:26.173Z,99089.58
2023-03-30T04:44:24.634Z,99086.30
2023-03-30T04:47:06.312Z,99084.45
2023-03-30T04:50:01.799Z,99080.13
2023-03-30T04:52:56.357Z,99073.20
2023-03-30T04:55:56.669Z,99077.48
2023-03-30T04:58:33.677Z,99077.20
2023-03-30T05:01:22.640Z,99076.75
2023-03-30T05:04:20.402Z,99076.39
2023-03-30T05:07:07.372Z,99078.37
2023-03-30T05:09:59.047Z,99074.31
2023-03-30T05:12:45.629Z,99077.01
2023-03-30T05:15:32.511Z,99082.88
2023-03-30T05:18:18.479Z,99083.83
2023-03-30T05:21:21.437Z,99082.16
2023-03-30T05:24:13.096Z,99079.80
2023-03-30T05:27:17.181Z,99072.77
2023-03-30T05:30:02.121Z,99067.93
2023-03-30T05:32:51.424Z,99064.09
2023-03-30T05:35:26.340Z,99059.16
2023-03-30T05:38:24.072Z,99051.00
2023-03-30T05:41:24.962Z,99048.11
2023-03-30T05:44:21.933Z,99044.61
2023-03-30T05:47:09.566Z,99041.50
2023-03-30T05:50:00.764Z,99037.49
2023-03-30T05:52:57.584Z,99037.10
2023-03-30T05:56:04.780Z,99033.55
2023-03-30T05:58:56.121Z,99028.89
2023-03-30T06:01:59.547Z,99023.71
2023-03-30T06:04:28.675Z,99022.31
2023-03-30T06:06:57.022Z,99022.84
2023-03-30T06:09:26.435Z,99026.17
2023-03-30T06:11:55.286Z,99022.00
2023-03-30T06:14:26.367Z,99015.71
2023-03-30T06:17:18.703Z,99012.02
2023-03-30T06:19:46.985Z,99016.05
2023-03-30T06:22:15.618Z,99015.95
2023-03-30T06:25:08.547Z,99014.36
2023-03-30T06:27:37.517Z,99007.27
2023-03-30T06:30:12.783Z,99003.73
2023-03-30T06:32:42.469Z,99004.61
2023-03-30T06:35:26.844Z,99002.81
2023-03-30T06:37:55.411Z,99005.63
2023-03-30T06:40:24.560Z,99001.94
2023-03-30T06:42:57.117Z,99002.02
2023-03-30T06:45:53.185Z,98994.56
2023-03-30T06:48:26.723Z,98988.60
2023-03-30T06:51:27.770Z,98984.23
2023-03-30T06:53:56.895Z,98980.19
2023-03-30T06:56:26.685Z,98982.45
2023-03-30T06:59:07.197Z,98983.73
2023-03-30T07:01:44.302Z,98981.23
2023-03-30T07:04:42.060Z,98979.81
2023-03-30T07:07:26.778Z,98975.02
2023-03-30T07:09:55.462Z,98973.91
2023-03-30T07:12:24.416Z,98968.39
2023-03-30T07:14:54.349Z,98965.60
2023-03-30T07:17:26.785Z,98961.55
2023-03-30T07:19:55.844Z,98960.64
2023-03-30T07:22:24.311Z,98956.24
2023-03-30T07:24:53.321Z,98953.89
2023-03-30T07:27:25.435Z,98953.04
2023-03-30T07:29:55.663Z,98951.56
2023-03-30T07:32:24.202Z,98951.45
2023-03-30T07:34:52.646Z,98947.98
2023-03-30T07:37:21.103Z,98950.51
2023-03-30T07:39:50.079Z,98945.58
2023-03-30T07:42:18.941Z,98945.48
2023-03-30T07:44:47.608Z,98945.31
2023-03-30T07:47:18.076Z,98947.91
2023-03-30T07:49:46.503Z,98946.75
2023-03-30T07:52:14.855Z,98945.70
2023-03-30T07:55:04.408Z,98946.56
2023-03-30T07:57:39.632Z,98947.45
2023-03-30T08:00:14.109Z,98941.86
2023-03-30T08:03:05.774Z,98936.93
2023-03-30T08:05:34.274Z,98931.97
2023-03-30T08:08:22.138Z,98923.86
2023-03-30T08:10:51.079Z,98921.09
2023-03-30T08:13:21.824Z,98917.38
2023-03-30T08:15:52.761Z,98917.44
2023-03-30T08:18:21.671Z,98915.89
2023-03-30T08:20:52.606Z,98914.98
2023-03-30T08:23:21.636Z,98911.24
2023-03-30T08:25:52.740Z,98911.21
2023-03-30T08:28:21.621Z,98912.52
2023-03-30T08:30:50.005Z,98906.95
2023-03-30T08:33:21.108Z,98903.27
2023-03-30T08:35:49.929Z,98894.52
2023-03-30T08:38:19.104Z,98890.02
2023-03-30T08:40:49.307Z,98884.14
2023-03-30T08:43:35.987Z,98881.37
2023-03-30T08:46:04.468Z,98874.70
2023-03-30T08:48:38.033Z,98877.67
2023-03-30T08:51:23.421Z,98870.19
2023-03-30T08:53:59.468Z,98865.73
2023-03-30T08:56:35.236Z,98871.59
2023-03-30T08:59:25.416Z,98874.95
2023-03-30T09:02:12.063Z,98878.70
2023-03-30T09:05:14.512Z,98878.30
2023-03-30T09:07:52.246Z,98874.14
2023-03-30T09:10:23.202Z,98868.41
2023-03-30T09:12:55.522Z,98865.91
2023-03-30T09:15:36.837Z,98854.85
2023-03-30T09:18:15.688Z,98858.03
2023-03-30T09:20:46.569Z,98872.67
2023-03-30T09:23:17.742Z,98875.39
2023-03-30T09:26:10.093Z,98876.46
2023-03-30T09:29:00.315Z,98873.60
2023-03-30T09:31:33.533Z,98869.91
2023-03-30T09:34:12.917Z,98869.23
2023-03-30T09:37:04.509Z,98871.83
2023-03-30T09:39:36.502Z,98869.50
2023-03-30T09:42:13.950Z,98865.31
2023-03-30T09:44:51.569Z,98865.91
2023-03-30T09:47:27.530Z,98858.44
2023-03-30T09:50:01.705Z,98856.70
2023-03-30T09:52:37.186Z,98854.83
2023-03-30T09:55:20.830Z,98848.02
2023-03-30T09:57:51.314Z,98841.46
2023-03-30T10:00:29.453Z,98835.72
2023-03-30T10:03:06.771Z,98824.14
2023-03-30T10:05:36.931Z,98812.19
2023-03-30T10:08:21.774Z,98807.42
2023-03-30T10:10:58.473Z,98806.39
2023-03-30T10:13:39.380Z,98803.73
2023-03-30T10:16:12.906Z,98800.61
2023-03-30T10:18:44.536Z,98805.19
2023-03-30T10:21:28.381Z,98807.80
2023-03-30T10:24:09.266Z,98812.94
2023-03-30T10:26:38.338Z,98813.44
2023-03-30T10:29:11.136Z,98810.56
2023-03-30T10:31:43.474Z,98809.11
2023-03-30T10:34:28.754Z,98807.66
2023-03-30T10:36:57.918Z,98798.05
2023-03-30T10:39:32.474Z,98788.95
2023-03-30T10:42:04.342Z,98792.89
2023-03-30T10:44:36.200Z,98793.88
2023-03-30T10:47:28.914Z,98786.59
2023-03-30T10:49:57.499Z,98781.30
2023-03-30T10:52:59.136Z,98778.41
2023-03-30T10:56:03.133Z,98779.84
2023-03-30T10:58:41.695Z,98773.35
2023-03-30T11:01:29.605Z,98763.45
2023-03-30T11:04:16.045Z,98760.31
2023-03-30T11:06:46.026Z,98765.33
2023-03-30T11:09:21.496Z,98760.83
2023-03-30T11:11:56.438Z,98756.99
2023-03-30T11:15:00.640Z,98753.81
2023-03-30T11:17:38.265Z,98745.40
2023-03-30T11:20:39.918Z,98734.64
2023-03-30T11:23:28.032Z,98729.09
2023-03-30T11:26:02.520Z,98727.45
2023-03-30T11:28:43.526Z,98731.41
2023-03-30T11:31:26.613Z,98731.75
2023-03-30T11:34:12.561Z,98730.09
2023-03-30T11:37:02.533Z,98727.45
2023-03-30T11:39:34.917Z,98725.79
2023-03-30T11:42:09.299Z,98723.30
2023-03-30T11:44:37.936Z,98716.59
2023-03-30T11:47:18.234Z,98711.59
2023-03-30T11:49:58.426Z,98706.73
2023-03-30T11:52:36.429Z,98706.98
2023-03-30T11:55:30.429Z,98701.88
2023-03-30T11:58:23.169Z,98688.89
2023-03-30T12:01:03.894Z,98683.97
2023-03-30T12:03:40.530Z,98685.36
2023-03-30T12:06:29.824Z,98688.75
2023-03-30T12:09:24.998Z,98684.98
2023-03-30T12:12:34.627Z,98681.77
2023-03-30T12:15:27.215Z,98678.05
2023-03-30T12:18:07.046Z,98674.23
2023-03-30T12:21:07.606Z,98671.80
2023-03-30T12:23:47.832Z,98671.47
2023-03-30T12:26:24.424Z,98668.37
2023-03-30T12:31:51.406Z,98663.38
2023-03-30T12:34:21.814Z,98655.96
2023-03-30T12:37:16.611Z,98641.30
2023-03-30T12:39:51.204Z,98632.39
2023-03-30T12:42:35.658Z,98624.06
2023-03-30T12:45:12.705Z,98613.06
2023-03-30T12:48:14.466Z,98605.11
2023-03-30T12:50:54.607Z,98604.46
2023-03-30T12:53:44.176Z,98601.51
2023-03-30T12:56:36.917Z,98598.52
2023-03-30T12:59:08.371Z,98597.58
2023-03-30T13:01:56.130Z,98594.67
2023-03-30T13:04:29.652Z,98600.49
2023-03-30T13:07:15.973Z,98605.06
2023-03-30T13:10:06.556Z,98607.92
2023-03-30T13:12:38.116Z,98612.66
2023-03-30T13:15:41.498Z,98614.25
2023-03-30T13:18:09.814Z,98618.41
2023-03-30T13:21:05.846Z,98615.29
2023-03-30T13:23:37.878Z,98618.09
2023-03-30T13:26:28.181Z,98619.91
2023-03-30T13:29:15.874Z,98620.66
2023-03-30T13:31:53.941Z,98622.29
2023-03-30T13:34:28.104Z,98620.91
2023-03-30T13:37:21.881Z,98614.27
2023-03-30T13:40:00.301Z,98604.20
2023-03-30T13:42:46.797Z,98597.51
2023-03-30T13:45:30.437Z,98598.59
2023-03-30T13:48:22.010Z,98592.37
2023-03-30T13:50:57.202Z,98591.59
2023-03-30T13:53:28.989Z,98587.87
2023-03-30T13:55:57.592Z,98588.94
2023-03-30T13:58:33.397Z,98585.75
2023-03-30T14:01:04.774Z,98583.25
2023-03-30T14:03:33.203Z,98580.66
2023-03-30T14:06:23.054Z,98576.40
2023-03-30T14:09:18.762Z,98570.92
2023-03-30T14:11:58.919Z,98565.45
2023-03-30T14:14:34.743Z,98562.27
2023-03-30T14:17:19.840Z,98558.45
2023-03-30T14:19:51.293Z,98560.13
2023-03-30T14:22:24.760Z,98559.39
2023-03-30T14:25:01.578Z,98558.65
2023-03-30T14:27:36.316Z,98559.55
2023-03-30T14:30:29.511Z,98556.90
2023-03-30T14:33:25.763Z,98557.95
2023-03-30T14:35:57.232Z,98552.54
2023-03-30T14:38:39.442Z,98549.42
2023-03-30T14:41:14.587Z,98551.58
2023-03-30T14:43:51.106Z,98554.72
2023-03-30T14:46:19.798Z,98555.64
2023-03-30T14:48:50.673Z,98557.46
2023-03-30T14:51:40.475Z,98553.77
2023-03-30T14:54:13.948Z,98552.78
2023-03-30T14:56:46.606Z,98557.10
2023-03-30T14:59:18.369Z,98558.81
2023-03-30T15:01:46.976Z,98553.83
2023-03-30T15:04:17.437Z,98553.36
2023-03-30T15:06:47.390Z,98550.67
2023-03-30T15:09:18.847Z,98546.27
2023-03-30T15:11:52.568Z,98543.24
2023-03-30T15:14:22.745Z,98543.98
2023-03-30T15:16:53.880Z,98542.25
2023-03-30T15:19:42.700Z,98542.17
2023-03-30T15:22:20.901Z,98537.77
2023-03-30T15:24:50.125Z,98534.53
2023-03-30T15:27:18.572Z,98538.46
2023-03-30T15:29:47.370Z,98538.21
2023-03-30T15:32:15.636Z,98535.52
2023-03-30T15:35:19.359Z,98532.36
2023-03-30T15:38:13.412Z,98525.10
2023-03-30T15:40:50.261Z,98524.30
2023-03-30T15:43:18.501Z,98525.73
2023-03-30T15:45:56.135Z,98524.50
2023-03-30T15:48:42.167Z,98523.92
2023-03-30T15:51:15.672Z,98518.44
2023-03-30T15:53:52.611Z,98514.92
2023-03-30T15:56:41.151Z,98516.27
2023-03-30T15:59:19.061Z,98518.03
2023-03-30T16:01:47.304Z,98515.48
2023-03-30T16:04:17.583Z,98514.71
2023-03-30T16:06:47.493Z,98512.84
2023-03-30T16:09:17.101Z,98512.17
2023-03-30T16:11:46.704Z,98510.11
2023-03-30T16:14:20.605Z,98510.03
2023-03-30T16:16:49.211Z,98507.37
2023-03-30T16:19:20.241Z,98504.06
2023-03-30T16:21:51.549Z,98504.34
2023-03-30T16:24:19.765Z,98503.30
2023-03-30T16:26:48.014Z,98499.30
2023-03-30T16:29:22.051Z,98498.27
2023-03-30T16:31:51.964Z,98493.48
2023-03-30T16:34:21.991Z,98492.46
2023-03-30T16:36:50.949Z,98493.59
2023-03-30T16:39:25.207Z,98493.31
2023-03-30T16:41:54.499Z,98496.33
2023-03-30T16:44:24.243Z,98496.02
2023-03-30T16:46:53.097Z,98495.70
2023-03-30T16:49:26.339Z,98493.57
2023-03-30T16:51:57.909Z,98492.33
2023-03-30T16:56:57.928Z,98487.83
2023-03-30T16:59:29.228Z,98488.77
2023-03-30T17:01:58.234Z,98488.70
2023-03-30T17:04:26.862Z,98487.09
2023-03-30T17:06:55.521Z,98485.05
2023-03-30T17:09:23.836Z,98486.89
2023-03-30T17:11:52.256Z,98486.02
2023-03-30T17:14:20.929Z,98484.52
2023-03-30T17:16:49.369Z,98483.90
2023-03-30T17:19:17.682Z,98480.88
2023-03-30T17:21:46.236Z,98483.79
2023-03-30T17:24:16.524Z,98481.20
2023-03-30T17:26:44.858Z,98479.89
2023-03-30T17:29:13.218Z,98485.49
2023-03-30T17:31:45.829Z,98484.73
2023-03-30T17:34:14.947Z,98485.74
2023-03-30T17:36:43.244Z,98489.27
2023-03-30T17:39:14.308Z,98490.26
2023-03-30T17:41:42.678Z,98489.73
2023-03-30T17:44:10.820Z,98488.38
2023-03-30T17:46:39.515Z,98490.33
2023-03-30T17:49:16.341Z,98488.54
2023-03-30T17:51:44.821Z,98491.35
2023-03-30T17:54:13.230Z,98493.00
2023-03-30T17:56:41.481Z,98495.34
2023-03-30T17:59:13.728Z,98497.48
2023-03-30T18:01:42.105Z,98497.66
2023-03-30T18:04:10.532Z,98493.73
2023-03-30T18:06:38.854Z,98495.01
2023-03-30T18:09:15.964Z,98495.59
2023-03-30T18:11:44.435Z,98497.77
2023-03-30T18:14:12.796Z,98496.96
2023-03-30T18:16:43.604Z,98491.17
2023-03-30T18:19:12.425Z,98493.54
2023-03-30T18:21:40.831Z,98493.78
2023-03-30T18:24:09.028Z,98491.23
2023-03-30T18:26:39.669Z,98492.00
2023-03-30T18:29:20.323Z,98487.73
2023-03-30T18:31:49.269Z,98486.80
2023-03-30T18:34:19.647Z,98482.85
2023-03-30T18:36:47.980Z,98477.89
2023-03-30T18:39:21.497Z,98474.05
2023-03-30T18:41:50.058Z,98473.20
2023-03-30T18:44:29.642Z,98471.63
2023-03-30T18:47:01.651Z,98463.70
2023-03-30T18:49:32.878Z,98459.56
2023-03-30T18:52:01.208Z,98457.09
2023-03-30T18:54:29.396Z,98457.25
2023-03-30T18:56:57.783Z,98455.01
2023-03-30T18:59:26.263Z,98451.73
2023-03-30T19:01:54.495Z,98452.58
2023-03-30T19:04:22.661Z,98449.35
2023-03-30T19:06:53.108Z,98449.98
2023-03-30T19:09:29.781Z,98449.11
2023-03-30T19:12:05.098Z,98442.59
2023-03-30T19:14:33.353Z,98442.98
2023-03-30T19:17:01.623Z,98444.69
2023-03-30T19:19:30.100Z,98441.94
2023-03-30T19:21:59.483Z,98445.77
2023-03-30T19:24:27.653Z,98446.45
2023-03-30T19:26:55.860Z,98454.37
2023-03-30T19:29:24.213Z,98460.23
2023-03-30T19:31:55.082Z,98460.77
2023-03-30T19:34:23.416Z,98457.17
2023-03-30T19:36:51.634Z,98458.59
2023-03-30T19:39:19.980Z,98452.59
2023-03-30T19:41:48.255Z,98448.53
2023-03-30T19:44:16.525Z,98443.92
2023-03-30T19:46:44.820Z,98447.81
2023-03-30T19:49:13.159Z,98442.77
2023-03-30T19:51:41.536Z,98437.55
2023-03-30T19:54:10.859Z,98432.12
2023-03-30T19:56:39.214Z,98429.20
2023-03-30T19:59:08.239Z,98430.97
2023-03-30T20:01:36.499Z,98428.47
2023-03-30T20:04:05.812Z,98434.77
2023-03-30T20:06:35.973Z,98434.55
2023-03-30T20:09:04.891Z,98436.80
2023-03-30T20:11:33.245Z,98436.27
2023-03-30T20:14:03.563Z,98438.89
2023-03-30T20:16:38.099Z,98438.40
2023-03-30T20:19:15.876Z,98441.13
2023-03-30T20:21:47.542Z,98439.09
2023-03-30T20:24:16.274Z,98437.23
2023-03-30T20:26:44.853Z,98435.39
2023-03-30T20:29:13.228Z,98430.32
2023-03-30T20:31:45.557Z,98428.70
2023-03-30T20:34:15.506Z,98424.30
2023-03-30T20:36:46.520Z,98418.58
2023-03-30T20:39:14.785Z,98415.82
2023-03-30T20:41:43.031Z,98415.42
2023-03-30T20:44:18.285Z,98409.54
2023-03-30T20:46:47.544Z,98405.48
2023-03-30T20:49:16.102Z,98404.71
2023-03-30T20:51:45.181Z,98395.59
2023-03-30T20:54:13.443Z,98391.84
2023-03-30T20:56:43.229Z,98394.69
2023-03-30T20:59:11.769Z,98399.98
2023-03-30T21:01:41.029Z,98404.38
2023-03-30T21:04:09.865Z,98406.63
2023-03-30T21:06:38.277Z,98405.34
2023-03-30T21:09:07.181Z,98398.24
2023-03-30T21:11:38.995Z,98401.04
2023-03-30T21:14:09.330Z,98402.14
2023-03-30T21:16:38.212Z,98399.26
2023-03-30T21:19:08.351Z,98396.05
2023-03-30T21:21:37.863Z,98396.56
2023-03-30T21:24:08.884Z,98396.76
2023-03-30T21:26:37.941Z,98391.44
2023-03-30T21:29:06.299Z,98389.92
2023-03-30T21:31:34.527Z,98384.43
2023-03-30T21:34:02.950Z,98378.02
2023-03-30T21:36:31.304Z,98373.69
2023-03-30T21:39:00.906Z,98369.20
2023-03-30T21:41:30.300Z,98371.41
2023-03-30T21:43:58.634Z,98369.45
2023-03-30T21:46:27.230Z,98365.89
2023-03-30T21:48:55.651Z,98362.92
2023-03-30T21:51:27.438Z,98365.27
2023-03-30T21:53:56.733Z,98366.64
2023-03-30T21:56:29.003Z,98365.67
2023-03-30T21:58:58.546Z,98365.15
2023-03-30T22:01:27.130Z,98360.67
2023-03-30T22:03:56.412Z,98354.25
2023-03-30T22:06:24.876Z,98347.82
2023-03-30T22:08:53.234Z,98343.98
2023-03-30T22:11:24.073Z,98337.22
2023-03-30T22:13:55.110Z,98331.36
2023-03-30T22:16:28.836Z,98327.88
2023-03-30T22:19:01.770Z,98325.80
2023-03-30T22:21:34.622Z,98322.10
2023-03-30T22:24:05.527Z,98325.73
2023-03-30T22:26:35.601Z,98323.35
2023-03-30T22:29:05.115Z,98315.27
2023-03-30T22:31:33.596Z,98313.63
2023-03-30T22:34:02.951Z,98312.40
2023-03-30T22:36:31.285Z,98305.42
2023-03-30T22:39:01.261Z,98302.96
2023-03-30T22:41:30.153Z,98305.02
2023-03-30T22:43:58.674Z,98305.27
2023-03-30T22:46:27.403Z,98301.15
2023-03-30T22:48:56.329Z,98298.29
2023-03-30T22:51:28.372Z,98299.30
2023-03-30T22:53:58.756Z,98293.75
2023-03-30T22:56:29.222Z,98295.52
2023-03-30T22:58:59.465Z,98296.71
2023-03-30T23:01:32.083Z,98292.72
2023-03-30T23:04:01.811Z,98286.86
2023-03-30T23:06:31.289Z,98289.49
2023-03-30T23:09:02.574Z,98285.54
2023-03-30T23:11:32.225Z,98283.88
2023-03-30T23:14:06.279Z,98282.75
2023-03-30T23:16:35.988Z,98273.06
2023-03-30T23:19:05.244Z,98274.45
2023-03-30T23:21:37.000Z,98279.63
2023-03-30T23:24:08.073Z,98280.75
2023-03-30T23:26:36.511Z,98279.41
2023-03-30T23:29:05.201Z,98278.52
2023-03-30T23:31:34.655Z,98277.79
2023-03-30T23:34:03.187Z,98280.95
2023-03-30T23:36:31.430Z,98277.55
2023-03-30T23:38:59.672Z,98281.90
2023-03-30T23:41:29.114Z,98283.56
2023-03-30T23:43:57.339Z,98284.44
2023-03-30T23:46:25.706Z,98289.56
2023-03-30T23:48:53.965Z,98295.41
2023-03-30T23:51:22.146Z,98293.36
2023-03-30T23:53:54.440Z,98289.75
2023-03-30T23:56:25.941Z,98290.58
2023-03-30T23:58:54.272Z,98290.91
